Pays
Station

 

Conditions  météo  pour  Minot Air Force Base  -  Etats-Unis    Etats-Unis

  
15 °C
    
 
 

METAR pour Minot Air Force Base :

KMIB 212256Z AUTO 29009KT 10SM BKN100 15/M05 A2999 RMK AO2 SLP169 T01501054 $

 

Voici le bulletin pour Minot Air Force Base - Etats-Unis.
 
Le bulletin a été fait il y a 20 minutes, à 22:56 UTC .
Le vent soufflait à la vitesse de 4.6 mètres par seconde de Ouest/Nord-ouest (290°).
 
La température était de 15 °C, avec un point de rosée à -5 °C.
La pression atmosphérique était de 1016 hPa.
L'humidité relative était de 24.7%.
 
Il y avait 5 à 7/8ème de nébulosité à une hauteur de 3048 mètres.
 
La visibilité globale était de 16.1 kilomètres.
 

 
 
 

Pays :   A   B   C   D   E   F   G   H   I   J   K   L   M   N   O   P   Q   R   S   T   U   V   W   Y   Z

 

Partenaires :  Info Météo avec Met'info
Météo Marine avec MeteoMarine.net
Infos Site  |  Infos Légales  |  Crédits  |  Confidentialité
Contactez-nous  |  Ajouter aux favoris
© 2013-2018 METAR - Tous droits réservés